createdAt,value
2018-09-20T00:01:26.056Z,85.55
2018-09-20T00:03:55.946Z,85.53
2018-09-20T00:06:25.957Z,84.47
2018-09-20T00:08:55.696Z,83.84
2018-09-20T00:11:25.372Z,83.98
2018-09-20T00:13:56.157Z,84.65
2018-09-20T00:16:27.229Z,84.93
2018-09-20T00:18:57.866Z,84.61
2018-09-20T00:21:27.856Z,84.13
2018-09-20T00:23:58.526Z,84.45
2018-09-20T00:26:28.840Z,84.51
2018-09-20T00:28:59.222Z,85.00
2018-09-20T00:31:29.509Z,84.92
2018-09-20T00:33:59.838Z,84.64
2018-09-20T00:36:31.248Z,84.30
2018-09-20T00:39:02.580Z,83.52
2018-09-20T00:41:33.777Z,83.74
2018-09-20T00:44:04.440Z,84.14
2018-09-20T00:46:35.513Z,84.27
2018-09-20T00:49:06.218Z,84.38
2018-09-20T00:51:37.171Z,84.88
2018-09-20T00:54:07.036Z,84.07
2018-09-20T00:56:37.678Z,84.11
2018-09-20T00:59:09.577Z,84.67
2018-09-20T01:01:40.747Z,84.22
2018-09-20T01:04:11.526Z,84.30
2018-09-20T01:06:42.412Z,83.81
2018-09-20T01:09:13.182Z,83.43
2018-09-20T01:11:43.922Z,83.40
2018-09-20T01:14:15.611Z,83.71
2018-09-20T01:16:46.644Z,84.03
2018-09-20T01:19:16.881Z,83.70
2018-09-20T01:21:47.374Z,84.30
2018-09-20T01:24:18.049Z,84.37
2018-09-20T01:26:48.597Z,84.62
2018-09-20T01:29:19.189Z,84.31
2018-09-20T01:31:49.773Z,84.20
2018-09-20T01:34:19.622Z,84.05
2018-09-20T01:36:50.272Z,84.37
2018-09-20T01:39:21.358Z,83.59
2018-09-20T01:41:51.432Z,83.56
2018-09-20T01:44:22.410Z,83.66
2018-09-20T01:46:52.233Z,83.80
2018-09-20T01:49:22.994Z,83.83
2018-09-20T01:51:53.957Z,83.88
2018-09-20T01:54:24.605Z,84.41
2018-09-20T01:56:54.303Z,84.27
2018-09-20T01:59:25.375Z,84.01
2018-09-20T02:01:56.100Z,84.33
2018-09-20T02:04:26.695Z,84.15
2018-09-20T02:06:57.904Z,84.62
2018-09-20T02:09:28.265Z,84.64
2018-09-20T02:11:58.538Z,84.07
2018-09-20T02:14:28.912Z,83.73
2018-09-20T02:17:00.451Z,83.94
2018-09-20T02:19:30.758Z,83.84
2018-09-20T02:22:00.454Z,84.29
2018-09-20T02:24:30.402Z,84.74
2018-09-20T02:27:00.785Z,84.23
2018-09-20T02:29:30.487Z,84.78
2018-09-20T02:32:01.530Z,84.25
2018-09-20T02:34:32.498Z,84.35
2018-09-20T02:37:02.222Z,84.10
2018-09-20T02:39:32.769Z,84.09
2018-09-20T02:42:03.164Z,84.84
2018-09-20T02:44:35.019Z,85.39
2018-09-20T02:47:05.642Z,85.05
2018-09-20T02:49:35.811Z,84.28
2018-09-20T02:52:06.570Z,84.60
2018-09-20T02:54:37.370Z,84.98
2018-09-20T02:57:08.021Z,84.91
2018-09-20T02:59:38.495Z,84.72
2018-09-20T03:02:09.178Z,85.25
2018-09-20T03:04:39.952Z,85.53
2018-09-20T03:07:11.819Z,84.46
2018-09-20T03:09:42.817Z,83.69
2018-09-20T03:12:12.589Z,83.47
2018-09-20T03:14:43.453Z,83.68
2018-09-20T03:17:14.310Z,84.02
2018-09-20T03:19:43.960Z,83.65
2018-09-20T03:22:14.275Z,83.82
2018-09-20T03:24:44.890Z,84.02
2018-09-20T03:27:14.914Z,84.59
2018-09-20T03:29:45.890Z,84.42
2018-09-20T03:32:16.584Z,83.88
2018-09-20T03:34:47.059Z,84.59
2018-09-20T03:37:18.454Z,83.75
2018-09-20T03:39:48.082Z,83.50
2018-09-20T03:42:17.985Z,83.63
2018-09-20T03:44:48.836Z,83.49
2018-09-20T03:47:18.650Z,83.65
2018-09-20T03:49:48.888Z,83.42
2018-09-20T03:52:20.174Z,83.77
2018-09-20T03:54:50.878Z,84.44
2018-09-20T03:57:21.154Z,84.40
2018-09-20T03:59:51.044Z,83.78
2018-09-20T04:02:22.439Z,83.91
2018-09-20T04:04:52.470Z,84.18
2018-09-20T04:07:23.368Z,83.74
2018-09-20T04:09:54.098Z,83.99
2018-09-20T04:12:25.358Z,83.84
2018-09-20T04:14:55.776Z,83.60
2018-09-20T04:17:27.500Z,84.36
2018-09-20T04:19:59.026Z,84.21
2018-09-20T04:22:30.258Z,84.12
2018-09-20T04:25:01.298Z,83.69
2018-09-20T04:27:31.766Z,83.91
2018-09-20T04:30:01.834Z,83.45
2018-09-20T04:32:33.475Z,83.53
2018-09-20T04:35:04.363Z,83.22
2018-09-20T04:37:36.359Z,83.19
2018-09-20T04:40:07.232Z,83.39
2018-09-20T04:42:37.944Z,83.08
2018-09-20T04:45:08.027Z,83.34
2018-09-20T04:47:37.729Z,83.45
2018-09-20T04:50:08.421Z,83.13
2018-09-20T04:52:39.138Z,83.49
2018-09-20T04:55:10.142Z,82.98
2018-09-20T04:57:40.195Z,82.82
2018-09-20T05:00:09.910Z,82.99
2018-09-20T05:02:41.037Z,82.83
2018-09-20T05:05:10.844Z,83.25
2018-09-20T05:07:40.777Z,82.45
2018-09-20T05:10:10.563Z,82.63
2018-09-20T05:12:41.397Z,82.96
2018-09-20T05:15:12.367Z,82.98
2018-09-20T05:17:42.727Z,82.41
2018-09-20T05:20:13.719Z,82.09
2018-09-20T05:22:44.159Z,82.36
2018-09-20T05:25:16.023Z,82.48
2018-09-20T05:27:45.791Z,82.13
2018-09-20T05:30:17.669Z,81.63
2018-09-20T05:32:49.266Z,80.90
2018-09-20T05:35:26.194Z,80.19
2018-09-20T05:37:55.878Z,79.89
2018-09-20T05:40:28.190Z,80.21
2018-09-20T05:42:58.930Z,80.08
2018-09-20T05:45:28.698Z,80.04
2018-09-20T05:47:58.829Z,79.57
2018-09-20T05:50:29.838Z,79.73
2018-09-20T05:52:59.895Z,79.21
2018-09-20T05:55:29.650Z,79.24
2018-09-20T05:57:59.657Z,79.14
2018-09-20T06:00:29.770Z,79.27
2018-09-20T06:02:59.464Z,78.82
2018-09-20T06:05:29.975Z,79.16
2018-09-20T06:08:00.151Z,78.76
2018-09-20T06:10:29.947Z,78.07
2018-09-20T06:13:00.046Z,78.27
2018-09-20T06:15:30.332Z,77.27
2018-09-20T06:18:00.715Z,77.30
2018-09-20T06:20:33.479Z,77.01
2018-09-20T06:23:03.513Z,76.40
2018-09-20T06:25:33.717Z,75.97
2018-09-20T06:28:03.548Z,75.68
2018-09-20T06:30:33.378Z,75.42
2018-09-20T06:33:03.090Z,75.45
2018-09-20T06:35:33.911Z,74.88
2018-09-20T06:38:03.723Z,74.86
2018-09-20T06:40:33.534Z,74.76
2018-09-20T06:43:04.157Z,74.16
2018-09-20T06:45:33.999Z,74.36
2018-09-20T06:48:04.143Z,74.31
2018-09-20T06:50:34.099Z,74.12
2018-09-20T06:53:04.127Z,74.37
2018-09-20T06:55:34.610Z,74.39
2018-09-20T06:58:05.344Z,73.73
2018-09-20T07:00:35.204Z,73.48
2018-09-20T07:03:05.420Z,73.23
2018-09-20T07:05:36.938Z,72.43
2018-09-20T07:08:06.704Z,72.39
2018-09-20T07:10:36.505Z,72.15
2018-09-20T07:13:06.639Z,71.44
2018-09-20T07:15:36.517Z,71.35
2018-09-20T07:18:06.348Z,71.14
2018-09-20T07:20:36.572Z,70.98
2018-09-20T07:23:06.618Z,71.49
2018-09-20T07:25:36.505Z,70.46
2018-09-20T07:28:07.334Z,69.61
2018-09-20T07:30:37.720Z,70.21
2018-09-20T07:33:07.770Z,70.05
2018-09-20T07:35:38.945Z,69.46
2018-09-20T07:38:08.930Z,68.37
2018-09-20T07:40:39.774Z,68.39
2018-09-20T07:43:10.507Z,68.51
2018-09-20T07:45:40.410Z,68.55
2018-09-20T07:48:10.146Z,68.50
2018-09-20T07:50:40.329Z,68.86
2018-09-20T07:53:10.178Z,68.59
2018-09-20T07:55:40.831Z,67.49
2018-09-20T07:58:10.918Z,66.14
2018-09-20T08:00:41.420Z,66.45
2018-09-20T08:03:11.170Z,66.85
2018-09-20T08:05:40.972Z,66.73
2018-09-20T08:08:10.868Z,65.54
2018-09-20T08:10:40.751Z,64.53
2018-09-20T08:13:10.583Z,62.14
2018-09-20T08:15:40.413Z,59.23
2018-09-20T08:18:10.230Z,59.27
2018-09-20T08:20:40.075Z,58.37
2018-09-20T08:23:10.171Z,57.59
2018-09-20T08:25:40.313Z,57.65
2018-09-20T08:28:10.754Z,56.11
2018-09-20T08:30:41.258Z,55.60
2018-09-20T08:33:11.124Z,55.11
2018-09-20T08:35:40.988Z,54.96
2018-09-20T08:38:10.782Z,55.27
2018-09-20T08:40:41.162Z,54.22
2018-09-20T08:43:11.063Z,52.29
2018-09-20T08:45:40.887Z,52.65
2018-09-20T08:48:10.662Z,52.28
2018-09-20T08:50:40.974Z,51.70
2018-09-20T08:53:11.976Z,50.84
2018-09-20T08:55:42.388Z,50.42
2018-09-20T08:58:12.802Z,50.68
2018-09-20T09:00:42.566Z,50.30
2018-09-20T09:03:12.403Z,50.62
2018-09-20T09:05:42.515Z,49.62
2018-09-20T09:08:12.826Z,49.40
2018-09-20T09:10:42.642Z,50.70
2018-09-20T09:13:13.036Z,49.76
2018-09-20T09:15:42.882Z,49.64
2018-09-20T09:18:12.623Z,48.99
2018-09-20T09:20:43.333Z,49.25
2018-09-20T09:23:13.152Z,48.38
2018-09-20T09:25:42.985Z,49.44
2018-09-20T09:28:12.826Z,49.23
2018-09-20T09:30:43.563Z,49.54
2018-09-20T09:33:14.315Z,51.41
2018-09-20T09:35:44.090Z,49.85
2018-09-20T09:38:14.894Z,50.15
2018-09-20T09:40:45.136Z,51.01
2018-09-20T09:43:14.934Z,50.39
2018-09-20T09:45:45.126Z,50.63
2018-09-20T09:48:14.983Z,49.05
2018-09-20T09:50:44.795Z,48.79
2018-09-20T09:53:15.056Z,48.78
2018-09-20T09:55:45.835Z,48.91
2018-09-20T09:58:15.683Z,49.21
2018-09-20T10:00:45.470Z,49.17
2018-09-20T10:03:15.262Z,48.43
2018-09-20T10:05:44.950Z,49.37
2018-09-20T10:08:14.636Z,49.20
2018-09-20T10:10:44.986Z,47.76
2018-09-20T10:13:14.763Z,47.76
2018-09-20T10:15:44.504Z,47.98
2018-09-20T10:18:14.240Z,49.03
2018-09-20T10:20:44.591Z,49.78
2018-09-20T10:23:14.312Z,48.89
2018-09-20T10:25:44.062Z,47.28
2018-09-20T10:28:13.774Z,48.08
2018-09-20T10:30:43.563Z,48.78
2018-09-20T10:33:13.246Z,47.96
2018-09-20T10:35:42.961Z,48.89
2018-09-20T10:38:13.905Z,48.45
2018-09-20T10:40:43.695Z,48.86
2018-09-20T10:43:13.429Z,48.49
2018-09-20T10:45:43.247Z,49.58
2018-09-20T10:48:13.211Z,49.46
2018-09-20T10:50:43.270Z,49.78
2018-09-20T10:53:13.313Z,49.76
2018-09-20T10:55:43.110Z,49.93
2018-09-20T10:58:12.765Z,49.23
2018-09-20T11:00:46.642Z,50.11
2018-09-20T11:03:16.863Z,48.57
2018-09-20T11:05:46.782Z,49.04
2018-09-20T11:08:18.839Z,48.91
2018-09-20T11:10:48.695Z,48.32
2018-09-20T11:13:18.374Z,49.12
2018-09-20T11:15:48.178Z,49.83
2018-09-20T11:18:19.718Z,48.58
2018-09-20T11:20:49.978Z,48.60
2018-09-20T11:23:20.790Z,48.46
2018-09-20T11:25:51.727Z,47.56
2018-09-20T11:28:22.160Z,47.94
2018-09-20T11:30:51.930Z,47.92
2018-09-20T11:33:22.112Z,47.72
2018-09-20T11:35:51.838Z,47.73
2018-09-20T11:38:22.019Z,47.37
2018-09-20T11:40:51.862Z,48.30
2018-09-20T11:43:21.589Z,48.06
2018-09-20T11:45:51.374Z,48.66
2018-09-20T11:48:21.070Z,48.58
2018-09-20T11:50:50.794Z,48.37
2018-09-20T11:53:21.372Z,47.97
2018-09-20T11:55:51.182Z,47.76
2018-09-20T11:58:21.429Z,47.73
2018-09-20T12:00:51.222Z,47.14
2018-09-20T12:03:21.154Z,46.48
2018-09-20T12:05:50.881Z,47.09
2018-09-20T12:08:20.925Z,47.62
2018-09-20T12:10:51.398Z,47.49
2018-09-20T12:13:21.137Z,48.56
2018-09-20T12:15:50.930Z,47.21
2018-09-20T12:18:20.729Z,46.70
2018-09-20T12:20:50.826Z,46.84
2018-09-20T12:23:20.490Z,47.23
2018-09-20T12:25:50.358Z,46.83
2018-09-20T12:28:20.944Z,46.63
2018-09-20T12:30:50.790Z,45.70
2018-09-20T12:33:20.582Z,45.60
2018-09-20T12:35:50.669Z,45.39
2018-09-20T12:38:20.329Z,45.58
2018-09-20T12:40:50.120Z,46.48
2018-09-20T12:43:20.125Z,46.67
2018-09-20T12:45:50.280Z,45.93
2018-09-20T12:48:20.203Z,46.21
2018-09-20T12:50:50.163Z,45.71
2018-09-20T12:53:19.874Z,46.13
2018-09-20T12:55:50.083Z,46.38
2018-09-20T12:58:24.655Z,46.11
2018-09-20T13:00:54.378Z,45.57
2018-09-20T13:03:24.156Z,45.87
2018-09-20T13:05:55.403Z,44.88
2018-09-20T13:08:25.362Z,45.49
2018-09-20T13:10:55.936Z,44.91
2018-09-20T13:13:25.634Z,45.49
2018-09-20T13:15:55.665Z,45.96
2018-09-20T13:18:25.809Z,45.95
2018-09-20T13:20:56.666Z,46.00
2018-09-20T13:23:26.454Z,45.84
2018-09-20T13:25:56.242Z,45.94
2018-09-20T13:28:26.062Z,46.75
2018-09-20T13:30:56.446Z,47.59
2018-09-20T13:33:26.306Z,47.30
2018-09-20T13:35:56.130Z,46.70
2018-09-20T13:38:25.826Z,45.83
2018-09-20T13:40:55.962Z,45.76
2018-09-20T13:43:26.906Z,46.23
2018-09-20T13:45:56.681Z,46.04
2018-09-20T13:48:26.514Z,46.82
2018-09-20T13:50:57.279Z,46.33
2018-09-20T13:53:29.127Z,45.73
2018-09-20T13:55:58.882Z,46.51
2018-09-20T13:58:28.871Z,47.03
2018-09-20T14:00:59.794Z,47.00
2018-09-20T14:03:30.457Z,47.65
2018-09-20T14:06:01.236Z,47.63
2018-09-20T14:08:31.478Z,47.40
2018-09-20T14:11:01.969Z,46.71
2018-09-20T14:13:31.750Z,47.38
2018-09-20T14:16:02.940Z,47.25
2018-09-20T14:18:32.789Z,47.55
2018-09-20T14:21:02.876Z,47.61
2018-09-20T14:23:32.688Z,47.45
2018-09-20T14:26:03.133Z,47.01
2018-09-20T14:28:32.989Z,46.36
2018-09-20T14:31:03.150Z,46.74
2018-09-20T14:33:33.824Z,47.42
2018-09-20T14:36:04.642Z,46.86
2018-09-20T14:38:34.484Z,46.20
2018-09-20T14:41:04.299Z,47.22
2018-09-20T14:43:34.061Z,47.38
2018-09-20T14:46:04.162Z,47.11
2018-09-20T14:48:33.954Z,46.83
2018-09-20T14:51:03.742Z,47.40
2018-09-20T14:53:34.080Z,47.18
2018-09-20T14:56:05.726Z,47.67
2018-09-20T14:58:36.402Z,47.80
2018-09-20T15:01:07.461Z,48.16
2018-09-20T15:03:37.641Z,48.99
2018-09-20T15:06:08.956Z,48.69
2018-09-20T15:08:39.239Z,48.57
2018-09-20T15:11:09.034Z,47.87
2018-09-20T15:13:38.810Z,48.24
2018-09-20T15:16:08.610Z,48.20
2018-09-20T15:18:38.431Z,48.41
2018-09-20T15:21:09.072Z,47.91
2018-09-20T15:23:38.795Z,48.02
2018-09-20T15:26:08.702Z,48.33
2018-09-20T15:28:38.452Z,48.52
2018-09-20T15:31:08.456Z,49.24
2018-09-20T15:33:38.258Z,49.22
2018-09-20T15:36:08.137Z,49.34
2018-09-20T15:38:38.094Z,49.80
2018-09-20T15:41:07.838Z,50.29
2018-09-20T15:43:38.126Z,50.51
2018-09-20T15:46:08.605Z,50.13
2018-09-20T15:48:38.362Z,50.27
2018-09-20T15:51:08.059Z,49.87
2018-09-20T15:53:42.507Z,50.56
2018-09-20T15:56:13.609Z,50.42
2018-09-20T15:58:44.490Z,50.45
2018-09-20T16:01:14.290Z,51.22
2018-09-20T16:03:44.118Z,51.63
2018-09-20T16:06:13.815Z,52.01
2018-09-20T16:08:43.549Z,53.69
2018-09-20T16:11:13.422Z,55.16
2018-09-20T16:13:43.169Z,55.42
2018-09-20T16:16:13.499Z,55.78
2018-09-20T16:18:44.224Z,55.56
2018-09-20T16:21:14.071Z,56.32
2018-09-20T16:23:44.563Z,56.83
2018-09-20T16:26:15.322Z,56.85
2018-09-20T16:29:00.576Z,57.42
2018-09-20T16:31:47.337Z,57.69
2018-09-20T16:34:36.797Z,57.44
2018-09-20T16:38:15.861Z,58.07
2018-09-20T16:40:48.234Z,58.47
2018-09-20T16:43:18.509Z,58.86
2018-09-20T16:45:49.916Z,58.45
2018-09-20T16:48:19.853Z,59.00
2018-09-20T16:50:49.641Z,58.62
2018-09-20T16:53:19.662Z,58.87
2018-09-20T16:55:49.447Z,59.50
2018-09-20T16:58:19.237Z,59.51
2018-09-20T17:00:50.464Z,60.23
2018-09-20T17:03:20.399Z,60.14
2018-09-20T17:05:50.470Z,60.94
2018-09-20T17:08:21.965Z,61.18
2018-09-20T17:10:51.854Z,61.51
2018-09-20T17:13:22.371Z,61.41
2018-09-20T17:15:52.736Z,61.84
2018-09-20T17:18:22.632Z,62.12
2018-09-20T17:20:52.443Z,63.25
2018-09-20T17:23:22.201Z,62.81
2018-09-20T17:25:52.512Z,63.37
2018-09-20T17:28:22.839Z,63.45
2018-09-20T17:30:53.706Z,64.02
2018-09-20T17:33:23.911Z,64.67
2018-09-20T17:35:54.699Z,65.21
2018-09-20T17:38:25.114Z,65.50
2018-09-20T17:40:59.979Z,64.99
2018-09-20T17:43:36.009Z,64.64
2018-09-20T17:46:05.919Z,64.49
2018-09-20T17:48:36.748Z,65.72
2018-09-20T17:51:07.779Z,65.87
2018-09-20T17:53:38.307Z,66.42
2018-09-20T17:56:08.939Z,66.43
2018-09-20T17:58:39.190Z,66.74
2018-09-20T18:01:10.077Z,67.28
2018-09-20T18:03:40.340Z,67.56
2018-09-20T18:06:10.850Z,68.15
2018-09-20T18:08:41.122Z,68.39
2018-09-20T18:11:11.537Z,68.92
2018-09-20T18:13:42.482Z,69.17
2018-09-20T18:16:15.120Z,69.01
2018-09-20T18:18:44.969Z,69.03
2018-09-20T18:21:16.621Z,68.72
2018-09-20T18:23:46.402Z,68.49
2018-09-20T18:26:18.230Z,68.88
2018-09-20T18:28:49.373Z,68.90
2018-09-20T18:31:19.816Z,69.86
2018-09-20T18:33:50.930Z,70.10
2018-09-20T18:36:20.874Z,69.65
2018-09-20T18:38:50.853Z,69.58
2018-09-20T18:41:22.011Z,69.88
2018-09-20T18:43:51.701Z,70.31
2018-09-20T18:46:23.239Z,70.25
2018-09-20T18:48:54.029Z,70.44
2018-09-20T18:51:23.948Z,70.69
2018-09-20T18:53:54.243Z,70.78
2018-09-20T18:56:24.895Z,71.05
2018-09-20T18:58:56.462Z,71.58
2018-09-20T19:01:26.908Z,71.65
2018-09-20T19:03:57.530Z,71.79
2018-09-20T19:06:28.228Z,71.97
2018-09-20T19:08:58.558Z,72.08
2018-09-20T19:11:28.988Z,72.33
2018-09-20T19:13:59.805Z,72.47
2018-09-20T19:16:29.698Z,72.67
2018-09-20T19:19:02.356Z,72.98
2018-09-20T19:21:32.189Z,73.12
2018-09-20T19:24:02.415Z,73.37
2018-09-20T19:26:33.822Z,73.29
2018-09-20T19:29:04.639Z,73.56
2018-09-20T19:31:34.989Z,73.60
2018-09-20T19:34:04.784Z,74.06
2018-09-20T19:36:36.047Z,74.01
2018-09-20T19:39:08.530Z,74.34
2018-09-20T19:41:39.706Z,74.28
2018-09-20T19:44:10.369Z,74.77
2018-09-20T19:46:41.114Z,74.48
2018-09-20T19:49:13.144Z,74.51
2018-09-20T19:51:43.247Z,74.92
2018-09-20T19:54:13.403Z,75.12
2018-09-20T19:56:43.720Z,74.85
2018-09-20T19:59:13.926Z,75.12
2018-09-20T20:01:43.668Z,75.24
2018-09-20T20:04:13.502Z,75.54
2018-09-20T20:06:43.845Z,75.85
2018-09-20T20:09:15.001Z,76.04
2018-09-20T20:11:45.107Z,76.07
2018-09-20T20:14:15.424Z,76.37
2018-09-20T20:16:45.252Z,76.24
2018-09-20T20:19:15.098Z,76.48
2018-09-20T20:21:44.938Z,76.60
2018-09-20T20:24:14.859Z,77.22
2018-09-20T20:26:44.666Z,77.44
2018-09-20T20:29:14.526Z,76.96
2018-09-20T20:31:46.470Z,77.69
2018-09-20T20:34:16.726Z,77.27
2018-09-20T20:36:46.590Z,77.48
2018-09-20T20:39:16.454Z,77.89
2018-09-20T20:41:46.594Z,78.20
2018-09-20T20:44:16.482Z,78.09
2018-09-20T20:46:46.422Z,78.01
2018-09-20T20:49:16.196Z,78.29
2018-09-20T20:51:45.930Z,78.00
2018-09-20T20:54:15.741Z,78.13
2018-09-20T20:56:45.622Z,77.78
2018-09-20T20:59:15.429Z,78.14
2018-09-20T21:01:45.203Z,78.57
2018-09-20T21:04:15.040Z,78.38
2018-09-20T21:07:14.904Z,78.63
2018-09-20T21:09:45.303Z,78.20
2018-09-20T21:12:15.810Z,78.75
2018-09-20T21:14:45.823Z,78.35
2018-09-20T21:17:15.713Z,78.81
2018-09-20T21:19:45.954Z,78.81
2018-09-20T21:22:16.732Z,78.62
2018-09-20T21:24:46.957Z,78.76
2018-09-20T21:27:18.927Z,78.75
2018-09-20T21:29:49.029Z,78.91
2018-09-20T21:32:19.266Z,78.80
2018-09-20T21:34:49.479Z,78.59
2018-09-20T21:37:21.334Z,78.93
2018-09-20T21:39:52.172Z,78.63
2018-09-20T21:42:24.075Z,78.95
2018-09-20T21:44:54.256Z,79.19
2018-09-20T21:47:24.535Z,79.31
2018-09-20T21:49:55.025Z,79.61
2018-09-20T21:52:25.665Z,79.29
2018-09-20T21:54:56.561Z,79.59
2018-09-20T21:57:28.339Z,79.46
2018-09-20T21:59:58.801Z,79.06
2018-09-20T22:02:34.327Z,79.54
2018-09-20T22:05:05.269Z,79.68
2018-09-20T22:07:35.130Z,79.88
2018-09-20T22:10:05.203Z,79.71
2018-09-20T22:12:36.444Z,79.53
2018-09-20T22:15:10.627Z,79.54
2018-09-20T22:17:41.999Z,79.92
2018-09-20T22:20:12.330Z,79.93
2018-09-20T22:22:42.499Z,79.72
2018-09-20T22:25:12.848Z,79.53
2018-09-20T22:27:44.358Z,79.78
2018-09-20T22:30:14.571Z,80.03
2018-09-20T22:32:45.485Z,79.78
2018-09-20T22:35:15.717Z,80.15
2018-09-20T22:37:46.316Z,80.04
2018-09-20T22:40:17.427Z,79.69
2018-09-20T22:42:48.355Z,79.75
2018-09-20T22:45:18.758Z,79.76
2018-09-20T22:47:49.189Z,80.05
2018-09-20T22:50:19.960Z,80.27
2018-09-20T22:52:50.221Z,80.07
2018-09-20T22:55:20.416Z,80.21
2018-09-20T22:57:50.550Z,80.06
2018-09-20T23:00:23.973Z,80.33
2018-09-20T23:02:55.511Z,80.16
2018-09-20T23:05:25.571Z,80.60
2018-09-20T23:07:55.394Z,80.15
2018-09-20T23:10:25.259Z,80.64
2018-09-20T23:12:56.204Z,80.17
2018-09-20T23:15:26.075Z,80.30
2018-09-20T23:17:56.432Z,80.44
2018-09-20T23:20:27.418Z,80.65
2018-09-20T23:22:59.402Z,80.61
2018-09-20T23:25:29.326Z,80.75
2018-09-20T23:27:59.892Z,80.87
2018-09-20T23:30:38.705Z,80.30
2018-09-20T23:33:08.731Z,80.60
2018-09-20T23:35:38.637Z,80.62
2018-09-20T23:38:08.808Z,80.62
2018-09-20T23:40:38.690Z,80.33
2018-09-20T23:43:08.598Z,80.37
2018-09-20T23:45:38.521Z,80.37
2018-09-20T23:48:08.495Z,80.85
2018-09-20T23:50:38.359Z,80.79
2018-09-20T23:53:08.401Z,81.30
2018-09-20T23:55:38.313Z,81.64
2018-09-20T23:58:08.247Z,81.83
